Asherton, Texas
Current Conditions -  °F | °C
As of 11:55 AM on Friday 31 Oct 2014 (Local Time) from KCZT Reporting Station
Overcast Overcast  
Wind Chill: 70°   Ceiling: 8000
Heat Index: 70°   Visibility: 10mi
Dew Point: 59°   Wind: 6mph
Humidity: 68%   Direction: 70°ENE
Pressure: 30.28"   Gusts: 17mph
Location:  28.44°N, 99.76°W
Report Text: KCZT 311655Z AUTO 07005G15KT 10SM SCT049 SCT075 OVC080 21/15 A3028 RMK AO2
Loading
Personal Weather Stations






























Interactive Weather Map
Tropical Storm Tracking
New forecast layout! Learn more

10-Day Weather Forecast

Advertisements
Track Severe Weather on mobile